Time;durP1;ratioP1;P1;durP2;ratioP2;P2;SDS_P1;SDS_P2;PMS_P1;PMS_P2;Temp;Humidity;BMP_temperature;BMP_pressure;BME280_temperature;BME280_humidity;BME280_pressure;Samples;Min_cycle;Max_cycle;Signal;HPM_P1;HPM_P2
2022/04/25 00:02:12;;;;;;;;;;;;;;;10.31;75.09;99140.34;4991865;28;823;-57
2022/04/25 00:04:39;;;;;;;;;;;;;;;10.29;74.53;99139.94;4991815;28;1952;-57
2022/04/25 00:07:05;;;;;;;;;;;;;;;10.27;74.31;99134.84;4992066;28;882;-57
2022/04/25 00:09:32;;;;;;;;;;;;;;;10.31;74.00;99134.81;4991865;28;795;-57
2022/04/25 00:11:59;;;;;;;;;;;;;;;10.32;73.84;99136.38;4991638;28;946;-57
2022/04/25 00:14:26;;;;;;;;;;;;;;;10.32;73.78;99131.63;4991833;28;894;-57
2022/04/25 00:16:56;;;;;;;;;;;;;;;10.37;73.29;99130.38;4991805;28;807;-57
2022/04/25 00:19:23;;;;;;;;;;;;;;;10.40;73.34;99129.53;4991658;28;906;-57
2022/04/25 00:21:48;;;;;;;;;;;;;;;10.40;72.99;99138.59;4991923;28;830;-57
2022/04/25 00:24:15;;;;;;;;;;;;;;;10.42;72.98;99130.69;4995313;28;1866;-57
2022/04/25 00:26:41;;;;;;;;;;;;;;;10.47;72.60;99136.94;4995713;28;999;-57
2022/04/25 00:29:08;;;;;;;;;;;;;;;10.50;72.50;99125.84;4995289;28;855;-57
2022/04/25 00:31:35;;;;;;;;;;;;;;;10.51;72.63;99134.91;4995498;28;831;-58
2022/04/25 00:34:02;;;;;;;;;;;;;;;10.49;72.92;99131.78;4995119;28;811;-57
2022/04/25 00:36:29;;;;;;;;;;;;;;;10.41;72.98;99134.66;4995019;28;1312;-57
2022/04/25 00:38:55;;;;;;;;;;;;;;;10.19;72.98;99128.63;4995169;28;815;-56
2022/04/25 00:41:22;;;;;;;;;;;;;;;9.89;74.07;99132.19;4994945;28;878;-56
2022/04/25 00:43:48;;;;;;;;;;;;;;;9.61;74.92;99123.06;4994920;28;1943;-57
2022/04/25 00:46:19;;;;;;;;;;;;;;;9.37;75.90;99126.91;4994899;28;909;-57
2022/04/25 00:48:46;;;;;;;;;;;;;;;9.28;77.72;99127.38;4994973;28;820;-57
2022/04/25 00:51:12;;;;;;;;;;;;;;;9.44;77.75;99118.53;4994836;28;835;-57
2022/04/25 00:53:39;;;;;;;;;;;;;;;9.63;77.17;99108.88;4994793;28;807;-57
2022/04/25 00:56:08;;;;;;;;;;;;;;;9.73;77.00;99109.91;4994805;28;827;-56
2022/04/25 00:58:35;;;;;;;;;;;;;;;9.70;76.94;99110.75;4994730;28;862;-57
2022/04/25 01:01:01;;;;;;;;;;;;;;;9.58;77.25;99112.88;4977309;28;863;-57
2022/04/25 01:03:26;;;;;;;;;;;;;;;9.46;77.37;99116.16;4994846;28;1953;-56
2022/04/25 01:05:54;;;;;;;;;;;;;;;9.22;78.01;99119.94;4994594;28;863;-56
2022/04/25 01:08:21;;;;;;;;;;;;;;;8.98;78.58;99119.78;4994549;28;823;-57
2022/04/25 01:10:48;;;;;;;;;;;;;;;8.91;79.54;99106.09;4994456;28;855;-57
2022/04/25 01:13:15;;;;;;;;;;;;;;;9.12;79.51;99105.88;4977139;28;831;-57
2022/04/25 01:15:42;;;;;;;;;;;;;;;9.36;79.00;99114.28;4994470;28;847;-56
2022/04/25 01:18:08;;;;;;;;;;;;;;;9.49;78.36;99107.03;4994377;28;934;-57
2022/04/25 01:20:35;;;;;;;;;;;;;;;9.59;77.92;99099.84;4994361;28;886;-57
2022/04/25 01:28:38;;;;;;;;;;;;;;;9.95;76.07;99104.91;4994239;28;593;-57
2022/04/25 01:31:05;;;;;;;;;;;;;;;9.90;76.36;99106.16;4994452;28;807;-57
2022/04/25 01:33:31;;;;;;;;;;;;;;;9.84;76.54;99098.75;4976261;28;890;-57
2022/04/25 01:35:58;;;;;;;;;;;;;;;9.81;76.93;99098.38;4993550;28;1301;-57
2022/04/25 01:38:25;;;;;;;;;;;;;;;9.75;77.14;99093.72;4993920;28;898;-57
2022/04/25 01:40:52;;;;;;;;;;;;;;;9.70;77.49;99089.44;4993771;28;894;-57
2022/04/25 01:43:19;;;;;;;;;;;;;;;9.68;77.29;99089.06;4994230;28;875;-57
2022/04/25 01:45:46;;;;;;;;;;;;;;;9.68;77.53;99088.31;4993764;28;1902;-57
2022/04/25 01:48:12;;;;;;;;;;;;;;;9.68;77.45;99085.53;4993730;28;851;-57
2022/04/25 01:50:39;;;;;;;;;;;;;;;9.76;77.21;99079.50;4993831;28;855;-57
2022/04/25 01:53:06;;;;;;;;;;;;;;;9.80;76.92;99071.19;4993650;28;819;-57
2022/04/25 01:55:31;;;;;;;;;;;;;;;9.79;76.90;99075.94;4993632;28;1049;-57
2022/04/25 01:57:58;;;;;;;;;;;;;;;9.73;76.99;99074.03;4993652;28;866;-57
2022/04/25 02:00:26;;;;;;;;;;;;;;;9.69;77.12;99074.09;4993583;28;890;-57
2022/04/25 02:02:52;;;;;;;;;;;;;;;9.67;76.56;99065.44;4993406;28;946;-57
2022/04/25 02:05:19;;;;;;;;;;;;;;;9.48;77.14;99071.63;4993337;28;1886;-57
2022/04/25 02:07:45;;;;;;;;;;;;;;;9.28;77.64;99066.72;4993306;28;870;-57
2022/04/25 02:10:12;;;;;;;;;;;;;;;9.17;78.61;99077.06;4993339;28;815;-57
2022/04/25 02:12:39;;;;;;;;;;;;;;;9.14;78.87;99075.16;4993347;28;803;-57
2022/04/25 02:15:12;;;;;;;;;;;;;;;9.20;78.77;99071.53;4993384;28;875;-57
2022/04/25 02:17:39;;;;;;;;;;;;;;;9.32;78.33;99072.19;4993239;28;826;-57
2022/04/25 02:20:06;;;;;;;;;;;;;;;9.24;78.35;99071.50;4993141;28;877;-57
2022/04/25 02:22:35;;;;;;;;;;;;;;;8.98;79.21;99072.94;4975836;28;934;-57
2022/04/25 02:25:02;;;;;;;;;;;;;;;8.80;80.03;99073.13;4992876;28;1890;-57
2022/04/25 02:27:29;;;;;;;;;;;;;;;8.85;81.07;99066.38;4993117;28;803;-57
2022/04/25 02:29:59;;;;;;;;;;;;;;;9.07;80.11;99076.00;4975550;28;1288;-57
2022/04/25 02:32:27;;;;;;;;;;;;;;;9.01;80.05;99065.84;4992879;28;954;-57
2022/04/25 02:34:54;;;;;;;;;;;;;;;8.86;80.28;99068.72;4992624;28;1468;-56
2022/04/25 02:37:21;;;;;;;;;;;;;;;8.65;80.91;99063.44;4992920;28;870;-56
2022/04/25 02:39:48;;;;;;;;;;;;;;;8.44;81.43;99064.38;4992763;28;816;-57
2022/04/25 02:42:15;;;;;;;;;;;;;;;8.30;81.88;99066.03;4975584;28;811;-56
2022/04/25 02:44:42;;;;;;;;;;;;;;;8.12;82.42;99063.41;4992720;28;1918;-57
2022/04/25 02:47:08;;;;;;;;;;;;;;;8.10;82.72;99065.78;4992708;28;823;-56
2022/04/25 02:49:35;;;;;;;;;;;;;;;8.08;82.92;99059.88;4992678;28;839;-57
2022/04/25 02:52:02;;;;;;;;;;;;;;;8.09;82.88;99060.69;4992744;28;803;-57
2022/04/25 02:54:29;;;;;;;;;;;;;;;8.08;83.11;99054.38;4992591;28;871;-57
2022/04/25 02:56:56;;;;;;;;;;;;;;;8.10;83.02;99059.50;4992656;28;831;-57
2022/04/25 02:59:22;;;;;;;;;;;;;;;8.13;82.95;99064.19;4992566;28;835;-57
2022/04/25 03:01:48;;;;;;;;;;;;;;;8.19;83.34;99065.31;4992538;28;901;-56
2022/04/25 03:04:14;;;;;;;;;;;;;;;8.17;82.90;99067.69;4992338;28;1895;-56
2022/04/25 03:06:40;;;;;;;;;;;;;;;8.14;83.42;99063.78;4992445;28;866;-56
2022/04/25 03:09:07;;;;;;;;;;;;;;;8.20;83.15;99061.38;4992322;28;883;-56
2022/04/25 03:11:35;;;;;;;;;;;;;;;8.16;83.14;99066.13;4992247;28;867;-57
2022/04/25 03:14:02;;;;;;;;;;;;;;;8.15;82.95;99072.81;4992309;28;950;-57
2022/04/25 03:16:29;;;;;;;;;;;;;;;8.04;83.40;99069.34;4992368;28;807;-56
2022/04/25 03:18:54;;;;;;;;;;;;;;;7.89;83.70;99058.44;4992495;28;954;-57
2022/04/25 03:21:21;;;;;;;;;;;;;;;7.79;84.25;99070.31;4992268;28;811;-57
2022/04/25 03:23:48;;;;;;;;;;;;;;;7.75;84.73;99066.78;4992186;28;1910;-57
2022/04/25 03:26:15;;;;;;;;;;;;;;;7.67;85.16;99071.53;4992156;28;1006;-57
2022/04/25 03:28:42;;;;;;;;;;;;;;;7.67;85.04;99068.00;4992286;28;913;-57
2022/04/25 03:31:09;;;;;;;;;;;;;;;7.69;84.81;99066.41;4992139;28;913;-57
2022/04/25 03:33:36;;;;;;;;;;;;;;;7.69;85.64;99060.13;4992084;28;863;-57
2022/04/25 03:36:03;;;;;;;;;;;;;;;7.73;85.26;99064.44;4991831;28;1278;-56
2022/04/25 03:38:30;;;;;;;;;;;;;;;7.83;86.07;99067.50;4992061;28;823;-56
2022/04/25 03:40:57;;;;;;;;;;;;;;;7.90;85.63;99075.75;4992074;28;891;-56
2022/04/25 03:43:24;;;;;;;;;;;;;;;7.91;85.87;99072.56;4992275;28;910;-57
2022/04/25 03:45:51;;;;;;;;;;;;;;;7.96;86.31;99074.13;4991890;28;1915;-56
2022/04/25 03:48:18;;;;;;;;;;;;;;;8.02;86.59;99072.50;4991914;28;910;-56
2022/04/25 03:50:45;;;;;;;;;;;;;;;8.11;86.41;99072.84;4992056;28;839;-57
2022/04/25 03:53:12;;;;;;;;;;;;;;;8.28;85.63;99071.16;4992011;28;826;-57
2022/04/25 03:58:24;;;;;;;;;;;;;;;8.59;84.65;99082.34;4994719;28;669;-57
2022/04/25 04:00:51;;;;;;;;;;;;;;;8.69;84.22;99081.47;4995810;28;875;-56
2022/04/25 04:03:18;;;;;;;;;;;;;;;8.88;84.14;99091.16;4995669;28;914;-56
2022/04/25 04:05:45;;;;;;;;;;;;;;;9.11;83.20;99086.97;4995703;28;1916;-56
2022/04/25 04:08:12;;;;;;;;;;;;;;;9.25;82.18;99097.88;4995506;28;871;-57
2022/04/25 04:10:38;;;;;;;;;;;;;;;9.37;81.66;99096.56;4995558;28;937;-57
2022/04/25 04:13:05;;;;;;;;;;;;;;;9.46;81.30;99099.59;4995650;28;925;-57
2022/04/25 04:15:32;;;;;;;;;;;;;;;9.59;80.70;99088.81;4995451;28;866;-57
2022/04/25 04:17:59;;;;;;;;;;;;;;;9.72;79.82;99095.34;4995470;28;891;-57
2022/04/25 04:20:26;;;;;;;;;;;;;;;9.84;79.56;99093.25;4995409;28;819;-57
2022/04/25 04:22:52;;;;;;;;;;;;;;;10.02;79.09;99091.00;4995495;28;811;-57
2022/04/25 04:25:20;;;;;;;;;;;;;;;10.18;78.17;99090.41;4995581;28;2002;-57
2022/04/25 04:27:48;;;;;;;;;;;;;;;10.35;77.56;99094.88;4995316;28;959;-57
2022/04/25 04:30:15;;;;;;;;;;;;;;;10.57;76.88;99091.78;4995447;28;902;-57
2022/04/25 04:32:42;;;;;;;;;;;;;;;10.87;76.32;99087.34;4995185;28;858;-56
2022/04/25 04:35:11;;;;;;;;;;;;;;;11.09;74.51;99087.72;4994966;28;1565;-56
2022/04/25 04:37:38;;;;;;;;;;;;;;;11.21;74.58;99087.13;4995015;28;864;-57
2022/04/25 04:42:51;;;;;;;;;;;;;;;11.49;73.78;99094.06;4995380;28;614;-57
2022/04/25 04:45:18;;;;;;;;;;;;;;;11.64;73.70;99089.81;4994881;28;1918;-57
2022/04/25 04:47:44;;;;;;;;;;;;;;;11.82;72.67;99083.09;4994999;28;815;-56
2022/04/25 04:50:15;;;;;;;;;;;;;;;12.02;73.04;99081.13;4994878;28;1030;-56
2022/04/25 04:52:42;;;;;;;;;;;;;;;12.26;72.55;99078.97;4994848;28;897;-56
2022/04/25 04:55:09;;;;;;;;;;;;;;;12.49;72.19;99084.81;4994723;28;923;-57
2022/04/25 04:57:35;;;;;;;;;;;;;;;12.73;71.66;99075.09;4994812;28;894;-57
2022/04/25 05:00:02;;;;;;;;;;;;;;;12.98;71.57;99080.00;4994792;28;835;-57
2022/04/25 05:02:28;;;;;;;;;;;;;;;13.23;71.55;99076.56;4994633;28;883;-56
2022/04/25 05:04:54;;;;;;;;;;;;;;;13.39;70.16;99074.97;4994688;28;1882;-57
2022/04/25 05:07:21;;;;;;;;;;;;;;;13.56;70.22;99076.47;4994423;28;957;-57
2022/04/25 05:09:48;;;;;;;;;;;;;;;13.88;69.65;99081.06;4993457;28;854;-57
2022/04/25 05:12:15;;;;;;;;;;;;;;;14.33;68.52;99084.88;4994357;28;963;-57
2022/04/25 05:14:42;;;;;;;;;;;;;;;14.95;67.24;99087.25;4994536;28;822;-57
2022/04/25 05:17:09;;;;;;;;;;;;;;;15.47;65.75;99093.41;4994376;28;938;-57
2022/04/25 05:19:35;;;;;;;;;;;;;;;15.87;64.51;99101.91;4976949;28;909;-57
2022/04/25 05:22:02;;;;;;;;;;;;;;;16.29;63.73;99109.06;4994424;28;799;-57
2022/04/25 05:24:29;;;;;;;;;;;;;;;16.69;61.65;99106.25;4994096;28;1951;-57
2022/04/25 05:26:56;;;;;;;;;;;;;;;17.50;59.78;99089.28;4994516;28;932;-57
2022/04/25 05:29:23;;;;;;;;;;;;;;;18.69;56.84;99094.94;4994198;28;898;-57
2022/04/25 05:31:50;;;;;;;;;;;;;;;20.05;52.83;99087.13;4994241;28;835;-57
2022/04/25 05:34:16;;;;;;;;;;;;;;;21.19;48.88;99091.06;4993813;28;1166;-57
2022/04/25 05:36:42;;;;;;;;;;;;;;;21.65;46.03;99086.72;4994091;28;858;-57
2022/04/25 05:39:09;;;;;;;;;;;;;;;21.95;45.85;99090.06;4993969;28;966;-57
2022/04/25 05:41:36;;;;;;;;;;;;;;;22.20;45.51;99086.44;4994237;28;899;-58
2022/04/25 05:44:03;;;;;;;;;;;;;;;22.68;44.33;99087.03;4993851;28;1900;-57
2022/04/25 05:46:30;;;;;;;;;;;;;;;23.48;42.82;99081.22;4994235;28;831;-58
2022/04/25 05:52:03;;;;;;;;;;;;;;;23.73;40.77;99084.34;4993956;28;724;-58
2022/04/25 05:54:30;;;;;;;;;;;;;;;23.93;39.99;99086.19;4994237;28;899;-58
2022/04/25 05:56:57;;;;;;;;;;;;;;;24.02;40.64;99083.84;4993573;28;875;-57
2022/04/25 05:59:24;;;;;;;;;;;;;;;23.40;40.79;99086.56;4994236;28;764;-57
2022/04/25 06:01:53;;;;;;;;;;;;;;;22.57;41.49;99077.22;4994235;28;831;-58
2022/04/25 06:04:21;;;;;;;;;;;;;;;22.09;43.17;99075.09;4993509;28;1885;-58
2022/04/25 06:06:48;;;;;;;;;;;;;;;22.45;42.67;99080.47;4993249;28;970;-58
2022/04/25 06:09:19;;;;;;;;;;;;;;;22.13;43.05;99072.81;4993554;28;851;-58
2022/04/25 06:11:46;;;;;;;;;;;;;;;22.20;43.23;99080.81;4993420;28;915;-58
2022/04/25 06:14:13;;;;;;;;;;;;;;;22.75;41.69;99078.13;4993400;28;811;-57
2022/04/25 06:16:40;;;;;;;;;;;;;;;23.35;40.15;99084.53;4993693;28;890;-57
2022/04/25 06:19:08;;;;;;;;;;;;;;;24.52;37.81;99084.38;4993192;28;803;-57
2022/04/25 06:21:34;;;;;;;;;;;;;;;25.00;36.12;99083.19;4992857;28;926;-58
2022/04/25 06:24:01;;;;;;;;;;;;;;;25.42;35.58;99075.56;4993125;28;1882;-58
2022/04/25 06:26:27;;;;;;;;;;;;;;;25.96;34.34;99074.97;4993531;28;915;-57
2022/04/25 06:28:54;;;;;;;;;;;;;;;25.61;35.49;99089.84;4993275;28;958;-58
2022/04/25 06:31:22;;;;;;;;;;;;;;;25.70;35.31;99091.59;4993037;28;883;-58
2022/04/25 06:33:49;;;;;;;;;;;;;;;25.51;34.52;99092.22;4993197;28;1095;-58
2022/04/25 06:36:16;;;;;;;;;;;;;;;25.30;34.09;99091.81;4992526;28;1714;-58
2022/04/25 06:38:43;;;;;;;;;;;;;;;24.90;34.89;99085.56;4992908;28;850;-58
2022/04/25 06:41:09;;;;;;;;;;;;;;;25.02;34.42;99081.38;4993150;28;835;-57
2022/04/25 06:43:36;;;;;;;;;;;;;;;25.13;34.75;99077.72;4992897;28;847;-57
2022/04/25 06:46:03;;;;;;;;;;;;;;;25.57;33.87;99078.06;4992614;28;919;-58
2022/04/25 06:48:30;;;;;;;;;;;;;;;25.70;33.40;99074.63;4992802;28;799;-58
2022/04/25 06:50:57;;;;;;;;;;;;;;;25.66;33.38;99074.91;4992588;28;864;-57
2022/04/25 06:53:24;;;;;;;;;;;;;;;26.01;33.08;99067.72;4992625;28;804;-58
2022/04/25 06:55:51;;;;;;;;;;;;;;;26.23;32.87;99061.84;4992605;28;859;-58
2022/04/25 06:58:18;;;;;;;;;;;;;;;26.60;31.91;99063.31;4992660;28;889;-58
2022/04/25 07:00:47;;;;;;;;;;;;;;;26.60;33.09;99059.72;4992639;28;1073;-58
2022/04/25 07:03:12;;;;;;;;;;;;;;;26.81;32.42;99063.59;4992438;28;915;-57
2022/04/25 07:05:42;;;;;;;;;;;;;;;26.84;31.52;99054.03;4992316;28;1955;-58
2022/04/25 07:08:07;;;;;;;;;;;;;;;26.92;31.83;99064.75;4975040;28;843;-57
2022/04/25 07:10:34;;;;;;;;;;;;;;;26.92;31.25;99062.69;4992458;28;882;-57
2022/04/25 07:13:01;;;;;;;;;;;;;;;26.39;31.78;99062.22;4992328;28;906;-57
2022/04/25 07:15:27;;;;;;;;;;;;;;;25.09;33.43;99068.00;4992245;28;880;-57
2022/04/25 07:17:56;;;;;;;;;;;;;;;23.72;35.97;99066.63;4992314;28;870;-57
2022/04/25 07:20:23;;;;;;;;;;;;;;;23.21;38.47;99062.94;4992213;28;886;-57
2022/04/25 07:31:05;;;;;;;;;;;;;;;25.84;35.70;99037.47;4991661;28;622;-57
2022/04/25 07:33:33;;;;;;;;;;;;;;;26.40;34.82;99033.38;4991693;28;827;-57
2022/04/25 07:35:59;;;;;;;;;;;;;;;26.29;33.75;99033.50;4991711;28;1317;-58
2022/04/25 07:38:26;;;;;;;;;;;;;;;26.55;32.80;99021.63;4992274;28;854;-57
2022/04/25 07:40:52;;;;;;;;;;;;;;;26.53;33.39;99017.78;4974814;28;1687;-57
2022/04/25 07:43:18;;;;;;;;;;;;;;;26.77;33.82;99012.09;4974770;28;850;-57
2022/04/25 07:45:44;;;;;;;;;;;;;;;26.84;33.61;99013.56;4991978;28;1906;-57
2022/04/25 07:48:11;;;;;;;;;;;;;;;26.84;34.17;99025.69;4992306;28;897;-57
2022/04/25 07:50:39;;;;;;;;;;;;;;;26.76;33.58;99024.75;4992351;28;987;-57
2022/04/25 07:53:06;;;;;;;;;;;;;;;26.53;33.90;99027.03;4992121;28;843;-57
2022/04/25 07:55:33;;;;;;;;;;;;;;;26.76;36.19;99024.75;4991901;28;934;-57
2022/04/25 07:58:00;;;;;;;;;;;;;;;26.88;34.98;99022.53;4992046;28;910;-57
2022/04/25 08:00:27;;;;;;;;;;;;;;;26.76;35.64;99033.25;4992183;28;938;-57
2022/04/25 08:02:53;;;;;;;;;;;;;;;26.70;35.73;99035.38;4991719;28;916;-57
2022/04/25 08:05:20;;;;;;;;;;;;;;;26.81;35.05;99028.81;4991678;28;1910;-57
2022/04/25 08:07:47;;;;;;;;;;;;;;;27.24;34.63;99028.00;4991832;28;857;-58
2022/04/25 08:10:14;;;;;;;;;;;;;;;27.34;33.94;99028.41;4991885;28;838;-57
2022/04/25 08:18:25;;;;;;;;;;;;;;;27.29;33.07;99021.50;4959089;28;1260;-57
2022/04/25 08:20:53;;;;;;;;;;;;;;;27.45;33.29;99023.31;4991731;28;919;-58
2022/04/25 08:23:21;;;;;;;;;;;;;;;27.47;34.78;99022.78;4991913;28;946;-58
2022/04/25 08:25:47;;;;;;;;;;;;;;;27.52;32.97;99027.59;4991538;28;1886;-58
2022/04/25 08:28:14;;;;;;;;;;;;;;;27.23;33.60;99029.34;4991720;28;831;-58
2022/04/25 08:30:41;;;;;;;;;;;;;;;27.07;33.90;99039.56;4991598;28;819;-58
2022/04/25 08:33:08;;;;;;;;;;;;;;;27.18;34.01;99030.13;4991787;28;812;-57
2022/04/25 08:35:35;;;;;;;;;;;;;;;27.46;35.39;99021.22;4991306;28;1239;-57
2022/04/25 08:38:02;;;;;;;;;;;;;;;27.87;34.25;99018.03;4991624;28;843;-58
2022/04/25 08:40:29;;;;;;;;;;;;;;;27.85;33.31;99011.34;4973764;28;1303;-57
2022/04/25 08:42:58;;;;;;;;;;;;;;;27.48;34.15;99015.78;4992031;28;853;-57
2022/04/25 08:45:27;;;;;;;;;;;;;;;27.34;34.62;99011.38;4995004;28;1906;-57
2022/04/25 08:47:58;;;;;;;;;;;;;;;27.54;35.61;99016.47;4995041;28;926;-58
2022/04/25 08:50:26;;;;;;;;;;;;;;;27.35;35.14;99021.41;4995248;28;918;-57
2022/04/25 08:52:56;;;;;;;;;;;;;;;26.99;35.80;99013.91;4994858;28;926;-57
2022/04/25 08:55:26;;;;;;;;;;;;;;;27.13;34.93;99016.81;4995082;28;942;-57
2022/04/25 08:57:54;;;;;;;;;;;;;;;27.06;34.54;99012.50;4994727;28;918;-57
2022/04/25 09:00:20;;;;;;;;;;;;;;;27.34;35.47;99020.66;4977604;28;804;-57
2022/04/25 09:02:47;;;;;;;;;;;;;;;27.09;35.34;99020.69;4994502;28;911;-57
2022/04/25 09:05:14;;;;;;;;;;;;;;;26.86;36.61;99005.28;4994478;28;1883;-57
2022/04/25 09:07:41;;;;;;;;;;;;;;;26.88;36.75;99014.03;4994560;28;903;-57
2022/04/25 09:10:09;;;;;;;;;;;;;;;26.66;35.24;99012.25;4994481;28;815;-57
2022/04/25 09:12:36;;;;;;;;;;;;;;;26.46;34.26;99008.56;4995046;28;768;-58
2022/04/25 09:15:04;;;;;;;;;;;;;;;26.32;35.00;99009.00;4994802;28;857;-57
2022/04/25 09:17:32;;;;;;;;;;;;;;;26.15;36.06;99009.94;4994836;28;822;-58
2022/04/25 09:19:58;;;;;;;;;;;;;;;26.07;36.32;99011.81;4977031;28;858;-57
2022/04/25 09:22:36;;;;;;;;;;;;;;;26.18;35.76;99008.09;4977248;28;823;-58
2022/04/25 09:25:16;;;;;;;;;;;;;;;26.01;35.98;98997.72;4994123;28;1883;-58
2022/04/25 09:27:44;;;;;;;;;;;;;;;26.08;37.18;98996.38;4994148;28;870;-57
2022/04/25 09:30:14;;;;;;;;;;;;;;;26.03;37.93;98992.28;4994112;28;942;-57
2022/04/25 09:32:41;;;;;;;;;;;;;;;25.89;36.64;98984.19;4994311;28;826;-57
2022/04/25 09:35:29;;;;;;;;;;;;;;;25.58;37.53;98977.72;4994149;28;1171;-57
2022/04/25 09:38:00;;;;;;;;;;;;;;;25.22;40.13;98983.38;4994098;28;923;-58
2022/04/25 09:40:30;;;;;;;;;;;;;;;25.38;42.25;98991.00;4994123;28;866;-58
2022/04/25 09:43:14;;;;;;;;;;;;;;;25.45;39.32;98978.34;4993960;28;908;-57
2022/04/25 09:45:42;;;;;;;;;;;;;;;25.17;40.39;98976.44;4993802;28;1970;-57
2022/04/25 09:48:10;;;;;;;;;;;;;;;25.18;40.57;98974.41;4994162;28;890;-57
2022/04/25 09:50:38;;;;;;;;;;;;;;;25.44;40.36;98974.00;4994272;28;841;-57
2022/04/25 09:53:05;;;;;;;;;;;;;;;25.45;39.94;98967.81;4976484;28;847;-57
2022/04/25 09:55:35;;;;;;;;;;;;;;;25.60;41.25;98967.41;4993205;28;841;-57
2022/04/25 10:26:46;;;;;;;;;;;;;;;25.99;38.03;98940.84;5244674;23;1701;-57
2022/04/25 10:29:16;;;;;;;;;;;;;;;25.97;37.82;98943.44;4973383;28;930;-57
2022/04/25 10:31:44;;;;;;;;;;;;;;;25.93;38.84;98939.38;4973681;28;898;-57
2022/04/25 10:34:14;;;;;;;;;;;;;;;26.03;38.75;98932.06;4973962;28;904;-57
2022/04/25 10:36:42;;;;;;;;;;;;;;;26.00;37.56;98944.44;4973585;28;858;-57
2022/04/25 10:39:18;;;;;;;;;;;;;;;25.91;39.10;98934.25;4956443;28;776;-57
2022/04/25 10:44:42;;;;;;;;;;;;;;;26.31;37.53;98943.09;4973387;28;1979;-57
2022/04/25 10:47:12;;;;;;;;;;;;;;;26.39;38.79;98940.41;4973458;28;819;-57
2022/04/25 10:49:55;;;;;;;;;;;;;;;26.33;37.42;98934.03;4973220;28;807;-57
2022/04/25 10:52:37;;;;;;;;;;;;;;;26.39;37.26;98931.91;4956160;28;840;-57
2022/04/25 10:55:12;;;;;;;;;;;;;;;26.77;38.93;98934.81;4973586;28;832;-57
2022/04/25 10:57:59;;;;;;;;;;;;;;;26.78;37.02;98931.44;4973160;28;923;-56
2022/04/25 11:00:41;;;;;;;;;;;;;;;26.45;36.59;98933.38;4973123;28;1867;-57
2022/04/25 11:03:12;;;;;;;;;;;;;;;26.42;37.12;98934.44;4973064;28;918;-57
2022/04/25 11:05:41;;;;;;;;;;;;;;;26.54;37.98;98931.47;4972969;28;1949;-57
2022/04/25 11:08:28;;;;;;;;;;;;;;;26.64;38.46;98938.31;4972241;28;871;-58
2022/04/25 11:10:55;;;;;;;;;;;;;;;26.68;38.31;98930.28;4972997;28;1807;-57
2022/04/25 11:13:23;;;;;;;;;;;;;;;26.79;38.93;98929.38;4972919;28;979;-57
2022/04/25 11:15:50;;;;;;;;;;;;;;;26.74;38.20;98930.97;4972916;28;911;-57
2022/04/25 11:18:28;;;;;;;;;;;;;;;26.77;37.39;98929.91;4973013;28;886;-57
2022/04/25 11:20:55;;;;;;;;;;;;;;;26.79;38.58;98929.38;4972831;28;919;-57
2022/04/25 11:23:26;;;;;;;;;;;;;;;26.77;37.38;98931.97;4973089;28;874;-58
2022/04/25 11:25:59;;;;;;;;;;;;;;;26.35;39.21;98931.44;4972598;28;1891;-58
2022/04/25 11:28:26;;;;;;;;;;;;;;;26.41;41.19;98917.97;4972820;28;996;-58
2022/04/25 11:31:29;;;;;;;;;;;;;;;26.83;39.47;98924.16;4972858;28;795;-57
2022/04/25 11:33:57;;;;;;;;;;;;;;;26.80;39.77;98926.00;4894300;29;1379;-58
2022/04/25 11:36:24;;;;;;;;;;;;;;;26.74;39.87;98925.31;4878798;29;1475;-57
2022/04/25 11:41:37;;;;;;;;;;;;;;;26.73;38.63;98929.44;4894743;29;946;-58
2022/04/25 11:56:16;;;;;;;;;;;;;;;26.19;40.11;98914.13;4894307;29;607;-57
2022/04/25 11:58:42;;;;;;;;;;;;;;;26.21;40.65;98914.34;4894525;29;836;-58
2022/04/25 12:01:09;;;;;;;;;;;;;;;26.23;40.30;98920.25;4894259;29;1046;-58
2022/04/25 12:03:39;;;;;;;;;;;;;;;26.47;41.31;98916.59;4894097;29;895;-57
2022/04/25 12:06:09;;;;;;;;;;;;;;;26.51;39.34;98904.97;4894138;29;1962;-57
2022/04/25 12:16:54;;;;;;;;;;;;;;;26.00;40.69;98899.91;4972774;28;594;-58
2022/04/25 12:19:22;;;;;;;;;;;;;;;26.38;39.02;98902.06;4974764;28;1032;-57
2022/04/25 12:21:58;;;;;;;;;;;;;;;26.60;39.13;98907.44;4976033;28;946;-57
2022/04/25 12:24:25;;;;;;;;;;;;;;;26.71;39.55;98897.28;4975931;28;1882;-58
2022/04/25 12:26:52;;;;;;;;;;;;;;;26.67;39.05;98900.41;4975853;28;1187;-58
2022/04/25 12:29:19;;;;;;;;;;;;;;;26.98;38.23;98898.94;4975931;28;799;-57
2022/04/25 12:31:48;;;;;;;;;;;;;;;26.79;37.98;98898.94;4976105;28;804;-58
2022/04/25 12:34:17;;;;;;;;;;;;;;;26.68;38.45;98899.88;4975753;28;977;-57
2022/04/25 12:36:56;;;;;;;;;;;;;;;26.67;39.14;98892.69;4975744;28;903;-58
2022/04/25 12:39:24;;;;;;;;;;;;;;;26.95;39.04;98888.69;4958474;28;895;-57
2022/04/25 12:41:58;;;;;;;;;;;;;;;27.13;37.58;98880.69;4975855;28;1013;-57
2022/04/25 12:44:26;;;;;;;;;;;;;;;27.05;38.34;98878.44;4975526;28;1902;-58
2022/04/25 12:47:01;;;;;;;;;;;;;;;27.03;38.62;98880.31;4975609;28;854;-57
2022/04/25 12:49:34;;;;;;;;;;;;;;;27.03;37.40;98880.31;4975507;28;922;-57
2022/04/25 12:52:02;;;;;;;;;;;;;;;26.98;37.97;98875.50;4975581;28;791;-57
2022/04/25 12:54:32;;;;;;;;;;;;;;;26.96;39.58;98883.78;4975324;28;903;-58
2022/04/25 12:57:18;;;;;;;;;;;;;;;27.08;37.27;98879.47;4975361;28;846;-57
2022/04/25 12:59:45;;;;;;;;;;;;;;;26.88;37.85;98880.78;4975397;28;799;-58
2022/04/25 13:02:14;;;;;;;;;;;;;;;26.82;37.49;98875.22;4975271;28;963;-58
2022/04/25 13:04:54;;;;;;;;;;;;;;;26.71;39.49;98877.44;4975103;28;1878;-57
2022/04/25 13:07:22;;;;;;;;;;;;;;;26.85;38.07;98881.88;4975350;28;783;-57
2022/04/25 13:09:49;;;;;;;;;;;;;;;26.93;37.72;98871.44;4975098;28;871;-58
2022/04/25 13:12:17;;;;;;;;;;;;;;;26.81;37.71;98876.50;4975153;28;937;-58
2022/04/25 13:14:44;;;;;;;;;;;;;;;26.80;37.40;98883.50;4975276;28;923;-58
2022/04/25 13:17:12;;;;;;;;;;;;;;;26.82;39.03;98877.25;4975063;28;942;-58
2022/04/25 13:19:39;;;;;;;;;;;;;;;26.89;38.41;98876.66;4974901;28;902;-58
2022/04/25 13:22:06;;;;;;;;;;;;;;;27.07;38.06;98875.84;4974806;28;936;-57
2022/04/25 13:24:33;;;;;;;;;;;;;;;27.28;36.80;98872.47;4974846;28;1947;-57
2022/04/25 13:26:58;;;;;;;;;;;;;;;27.39;37.37;98877.94;4974771;28;1203;-58
2022/04/25 13:29:26;;;;;;;;;;;;;;;27.37;36.72;98872.03;4974112;28;848;-58
2022/04/25 13:31:53;;;;;;;;;;;;;;;27.39;37.01;98880.78;4974499;28;882;-58
2022/04/25 13:34:19;;;;;;;;;;;;;;;27.20;37.91;98877.97;4974649;28;932;-58
2022/04/25 13:36:46;;;;;;;;;;;;;;;26.93;36.80;98885.63;4974734;28;807;-58
2022/04/25 13:39:12;;;;;;;;;;;;;;;26.76;37.61;98890.78;4974646;28;918;-58
2022/04/25 13:41:40;;;;;;;;;;;;;;;26.71;37.08;98883.84;4974672;28;874;-58
2022/04/25 13:44:07;;;;;;;;;;;;;;;26.69;37.05;98886.47;4974381;28;1977;-58
2022/04/25 13:46:34;;;;;;;;;;;;;;;26.49;35.71;98882.09;4957192;28;779;-58
2022/04/25 13:49:01;;;;;;;;;;;;;;;26.22;36.89;98883.97;4974485;28;868;-57
2022/04/25 13:51:28;;;;;;;;;;;;;;;26.37;36.23;98886.34;4974489;28;803;-57
2022/04/25 13:53:54;;;;;;;;;;;;;;;26.15;36.29;98888.16;4974257;28;866;-57
2022/04/25 13:56:21;;;;;;;;;;;;;;;26.07;36.33;98890.06;4957110;28;1580;-58
2022/04/25 13:58:48;;;;;;;;;;;;;;;25.85;37.42;98886.16;4974234;28;907;-57
2022/04/25 14:01:15;;;;;;;;;;;;;;;25.70;37.84;98894.28;4974182;28;1107;-58
2022/04/25 14:03:41;;;;;;;;;;;;;;;25.62;38.72;98885.59;4974223;28;819;-57
2022/04/25 14:06:08;;;;;;;;;;;;;;;25.53;37.43;98885.97;4974071;28;1895;-57
2022/04/25 14:08:34;;;;;;;;;;;;;;;25.49;38.07;98882.66;4974080;28;855;-57
2022/04/25 14:23:11;;;;;;;;;;;;;;;25.32;38.52;98871.47;4974143;28;617;-57
2022/04/25 14:25:37;;;;;;;;;;;;;;;25.28;38.07;98882.31;4973959;28;1894;-57
2022/04/25 14:28:04;;;;;;;;;;;;;;;25.17;39.07;98871.06;4973974;28;915;-57
2022/04/25 14:30:32;;;;;;;;;;;;;;;24.91;39.32;98877.19;4973937;28;925;-57
2022/04/25 14:32:59;;;;;;;;;;;;;;;24.90;38.88;98886.94;4973853;28;799;-57
2022/04/25 14:35:26;;;;;;;;;;;;;;;24.71;38.61;98889.63;4973770;28;839;-57
2022/04/25 14:37:53;;;;;;;;;;;;;;;24.56;39.44;98881.47;4973729;28;882;-57
2022/04/25 14:40:20;;;;;;;;;;;;;;;24.64;39.84;98880.44;4973747;28;815;-57
2022/04/25 14:42:47;;;;;;;;;;;;;;;24.65;38.78;98881.19;4973715;28;832;-57
2022/04/25 14:45:15;;;;;;;;;;;;;;;24.59;39.51;98886.88;4973321;28;1903;-57
2022/04/25 14:47:47;;;;;;;;;;;;;;;24.50;40.52;98890.00;4973411;28;911;-57